createdAt,value
2023-11-14T00:02:17.361Z,96261.94
2023-11-14T00:06:23.809Z,96255.14
2023-11-14T00:10:57.239Z,96244.51
2023-11-14T00:14:55.661Z,96243.36
2023-11-14T00:18:59.196Z,96239.81
2023-11-14T00:22:50.832Z,96239.77
2023-11-14T00:26:58.924Z,96237.55
2023-11-14T00:30:57.609Z,96241.20
2023-11-14T00:34:50.411Z,96245.89
2023-11-14T00:39:03.003Z,96254.92
2023-11-14T00:43:20.075Z,96251.11
2023-11-14T00:47:11.484Z,96239.52
2023-11-14T00:51:17.562Z,96253.94
2023-11-14T00:55:23.588Z,96260.06
2023-11-14T00:59:20.755Z,96255.68
2023-11-14T01:03:10.752Z,96253.38
2023-11-14T01:07:10.728Z,96257.34
2023-11-14T01:11:01.819Z,96261.13
2023-11-14T01:14:24.802Z,96288.13
2023-11-14T01:17:47.526Z,96300.13
2023-11-14T01:21:49.945Z,96317.91
2023-11-14T01:25:50.336Z,96320.33
2023-11-14T01:29:45.310Z,96331.76
2023-11-14T01:33:30.442Z,96347.56
2023-11-14T01:37:27.975Z,96358.48
2023-11-14T01:40:52.289Z,96358.45
2023-11-14T01:44:31.925Z,96363.04
2023-11-14T01:47:57.996Z,96391.73
2023-11-14T01:51:22.796Z,96408.46
2023-11-14T01:54:52.337Z,96392.73
2023-11-14T01:58:29.856Z,96393.30
2023-11-14T02:02:21.485Z,96400.62
2023-11-14T02:06:12.537Z,96405.04
2023-11-14T02:09:40.698Z,96417.87
2023-11-14T02:13:08.441Z,96396.38
2023-11-14T02:17:17.954Z,96386.64
2023-11-14T02:20:58.982Z,96364.52
2023-11-14T02:25:03.511Z,96316.70
2023-11-14T02:28:31.610Z,96307.01
2023-11-14T02:32:02.005Z,96334.89
2023-11-14T02:35:58.113Z,96346.67
2023-11-14T02:39:24.896Z,96364.88
2023-11-14T02:42:50.514Z,96353.80
2023-11-14T02:46:26.752Z,96334.84
2023-11-14T02:50:43.766Z,96341.45
2023-11-14T02:54:08.712Z,96352.35
2023-11-14T02:57:45.227Z,96348.94
2023-11-14T03:01:40.459Z,96363.58
2023-11-14T03:05:06.851Z,96380.94
2023-11-14T03:08:32.606Z,96385.83
2023-11-14T03:11:55.478Z,96386.16
2023-11-14T03:15:50.930Z,96392.03
2023-11-14T03:19:51.099Z,96402.77
2023-11-14T03:23:49.808Z,96415.38
2023-11-14T03:27:28.332Z,96431.61
2023-11-14T03:30:56.381Z,96437.06
2023-11-14T03:34:36.763Z,96430.12
2023-11-14T03:38:14.668Z,96429.07
2023-11-14T03:41:56.115Z,96434.52
2023-11-14T03:45:45.992Z,96435.20
2023-11-14T03:49:48.429Z,96442.69
2023-11-14T03:53:50.825Z,96454.73
2023-11-14T03:57:27.096Z,96462.52
2023-11-14T04:01:26.303Z,96467.23
2023-11-14T04:05:29.358Z,96471.82
2023-11-14T04:09:22.352Z,96472.45
2023-11-14T04:13:20.538Z,96467.12
2023-11-14T04:17:23.044Z,96472.31
2023-11-14T04:21:08.040Z,96472.07
2023-11-14T04:25:10.813Z,96468.13
2023-11-14T04:29:09.342Z,96464.22
2023-11-14T04:33:02.943Z,96471.91
2023-11-14T04:36:45.002Z,96485.95
2023-11-14T04:40:49.242Z,96491.23
2023-11-14T04:44:42.506Z,96495.55
2023-11-14T04:48:46.927Z,96491.28
2023-11-14T04:52:43.549Z,96507.64
2023-11-14T04:56:18.546Z,96516.70
2023-11-14T04:59:40.620Z,96519.05
2023-11-14T05:03:43.449Z,96522.40
2023-11-14T05:07:50.341Z,96522.09
2023-11-14T05:11:31.239Z,96531.81
2023-11-14T05:15:27.491Z,96536.48
2023-11-14T05:19:28.792Z,96547.71
2023-11-14T05:23:25.035Z,96555.45
2023-11-14T05:26:49.911Z,96554.95
2023-11-14T05:30:32.769Z,96558.06
2023-11-14T05:34:36.065Z,96562.95
2023-11-14T05:38:39.378Z,96569.22
2023-11-14T05:42:42.139Z,96581.88
2023-11-14T05:47:26.306Z,96593.08
2023-11-14T05:51:29.994Z,96606.42
2023-11-14T05:55:53.899Z,96613.46
2023-11-14T05:59:58.532Z,96601.00
2023-11-14T06:04:08.103Z,96592.89
2023-11-14T06:08:11.107Z,96610.55
2023-11-14T06:12:18.823Z,96620.69
2023-11-14T06:16:27.422Z,96641.49
2023-11-14T06:20:39.378Z,96647.67
2023-11-14T06:25:09.962Z,96644.39
2023-11-14T06:29:32.587Z,96644.53
2023-11-14T06:33:45.100Z,96661.72
2023-11-14T06:37:49.857Z,96666.82
2023-11-14T06:41:59.933Z,96670.20
2023-11-14T06:46:03.069Z,96673.61
2023-11-14T06:49:52.221Z,96682.31
2023-11-14T06:53:58.101Z,96688.95
2023-11-14T06:57:54.884Z,96690.06
2023-11-14T07:01:52.881Z,96696.83
2023-11-14T07:05:57.600Z,96692.73
2023-11-14T07:09:56.494Z,96696.75
2023-11-14T07:13:32.768Z,96697.69
2023-11-14T07:17:26.078Z,96688.19
2023-11-14T07:20:56.033Z,96696.00
2023-11-14T07:28:27.733Z,96693.62
2023-11-14T07:32:35.883Z,96687.21
2023-11-14T07:36:27.257Z,96689.27
2023-11-14T07:40:35.186Z,96681.92
2023-11-14T07:44:48.929Z,96683.92
2023-11-14T07:49:13.281Z,96689.96
2023-11-14T07:53:08.564Z,96706.59
2023-11-14T07:57:21.975Z,96711.47
2023-11-14T08:01:31.521Z,96713.13
2023-11-14T08:05:37.202Z,96710.34
2023-11-14T08:09:43.541Z,96716.85
2023-11-14T08:13:21.135Z,96714.30
2023-11-14T08:17:04.045Z,96714.79
2023-11-14T08:20:39.060Z,96723.80
2023-11-14T08:24:06.455Z,96735.22
2023-11-14T08:27:36.067Z,96738.39
2023-11-14T08:31:29.434Z,96746.60
2023-11-14T08:34:53.551Z,96745.45
2023-11-14T08:38:23.689Z,96740.30
2023-11-14T08:41:51.069Z,96736.80
2023-11-14T08:45:37.035Z,96729.02
2023-11-14T08:49:23.259Z,96737.16
2023-11-14T08:52:55.881Z,96749.34
2023-11-14T08:56:43.841Z,96752.80
2023-11-14T09:00:14.868Z,96748.19
2023-11-14T09:03:50.538Z,96752.23
2023-11-14T09:07:15.719Z,96757.30
2023-11-14T09:10:39.999Z,96757.27
2023-11-14T09:14:35.349Z,96768.48
2023-11-14T09:18:12.827Z,96774.79
2023-11-14T09:21:43.714Z,96778.95
2023-11-14T09:25:12.752Z,96780.45
2023-11-14T09:28:43.244Z,96784.08
2023-11-14T09:32:21.203Z,96790.11
2023-11-14T09:36:00.034Z,96790.09
2023-11-14T09:39:45.127Z,96791.21
2023-11-14T09:43:31.342Z,96788.98
2023-11-14T09:47:10.994Z,96796.70
2023-11-14T09:50:49.054Z,96795.06
2023-11-14T09:54:23.152Z,96801.83
2023-11-14T09:57:50.190Z,96795.20
2023-11-14T10:01:28.414Z,96803.87
2023-11-14T10:05:13.972Z,96808.02
2023-11-14T10:08:52.324Z,96803.92
2023-11-14T10:12:39.468Z,96804.06
2023-11-14T10:16:44.010Z,96810.05
2023-11-14T10:20:47.340Z,96796.84
2023-11-14T10:24:57.487Z,96769.75
2023-11-14T10:28:25.032Z,96751.77
2023-11-14T10:32:25.636Z,96750.48
2023-11-14T10:36:10.809Z,96757.80
2023-11-14T10:39:59.211Z,96750.73
2023-11-14T10:44:02.122Z,96755.52
2023-11-14T10:47:42.743Z,96792.23
2023-11-14T10:51:13.508Z,96789.35
2023-11-14T10:55:03.171Z,96782.94
2023-11-14T10:58:36.670Z,96782.29
2023-11-14T11:02:05.832Z,96778.69
2023-11-14T11:05:36.548Z,96777.95
2023-11-14T11:09:29.536Z,96778.35
2023-11-14T11:13:19.011Z,96781.42
2023-11-14T11:17:06.709Z,96791.96
2023-11-14T11:21:03.909Z,96791.63
2023-11-14T11:24:40.284Z,96778.70
2023-11-14T11:28:24.135Z,96768.17
2023-11-14T11:32:30.822Z,96768.59
2023-11-14T11:36:16.046Z,96766.87
2023-11-14T11:40:40.206Z,96763.61
2023-11-14T11:44:32.118Z,96765.61
2023-11-14T11:48:04.395Z,96763.65
2023-11-14T11:51:33.238Z,96760.30
2023-11-14T11:55:29.881Z,96774.78
2023-11-14T11:59:11.792Z,96771.98
2023-11-14T12:02:41.964Z,96774.34
2023-11-14T12:06:26.988Z,96772.30
2023-11-14T12:10:08.049Z,96770.98
2023-11-14T12:14:00.613Z,96769.27
2023-11-14T12:17:27.716Z,96784.77
2023-11-14T12:21:10.369Z,96789.05
2023-11-14T12:24:42.059Z,96785.54
2023-11-14T12:28:27.437Z,96785.38
2023-11-14T12:31:56.589Z,96785.04
2023-11-14T12:35:27.214Z,96792.17
2023-11-14T12:39:14.062Z,96783.01
2023-11-14T12:42:44.218Z,96773.31
2023-11-14T12:46:22.470Z,96766.31
2023-11-14T12:49:52.601Z,96766.16
2023-11-14T12:53:32.322Z,96764.50
2023-11-14T12:56:57.709Z,96759.24
2023-11-14T13:00:30.350Z,96772.38
2023-11-14T13:04:12.153Z,96777.86
2023-11-14T13:08:07.322Z,96781.27
2023-11-14T13:11:41.573Z,96797.95
2023-11-14T13:15:17.368Z,96798.73
2023-11-14T13:19:13.480Z,96797.59
2023-11-14T13:22:52.180Z,96799.46
2023-11-14T13:26:53.285Z,96795.64
2023-11-14T13:30:53.363Z,96783.21
2023-11-14T13:34:46.586Z,96776.40
2023-11-14T13:38:28.657Z,96761.47
2023-11-14T13:42:42.751Z,96757.09
2023-11-14T13:46:47.546Z,96746.73
2023-11-14T13:50:24.154Z,96755.05
2023-11-14T13:54:26.629Z,96753.12
2023-11-14T13:58:44.137Z,96740.74
2023-11-14T14:02:17.621Z,96730.91
2023-11-14T14:05:45.006Z,96728.46
2023-11-14T14:09:41.186Z,96730.92
2023-11-14T14:13:22.957Z,96725.55
2023-11-14T14:16:56.212Z,96731.78
2023-11-14T14:20:46.624Z,96724.97
2023-11-14T14:24:26.011Z,96723.14
2023-11-14T14:28:20.906Z,96723.27
2023-11-14T14:31:53.781Z,96734.55
2023-11-14T14:35:32.662Z,96729.76
2023-11-14T14:39:37.386Z,96735.19
2023-11-14T14:43:03.105Z,96734.09
2023-11-14T14:46:26.738Z,96741.55
2023-11-14T14:50:32.710Z,96746.58
2023-11-14T14:54:21.305Z,96756.92
2023-11-14T14:58:11.180Z,96747.00
2023-11-14T15:01:53.973Z,96741.88
2023-11-14T15:05:35.464Z,96742.00
2023-11-14T15:09:34.103Z,96739.59
2023-11-14T15:13:14.918Z,96731.69
2023-11-14T15:16:48.324Z,96736.11
2023-11-14T15:20:42.444Z,96742.71
2023-11-14T15:24:44.694Z,96743.81
2023-11-14T15:28:34.750Z,96738.70
2023-11-14T15:32:02.535Z,96751.48
2023-11-14T15:35:46.057Z,96748.40
2023-11-14T15:39:26.020Z,96745.41
2023-11-14T15:42:59.974Z,96754.02
2023-11-14T15:46:30.592Z,96754.98
2023-11-14T15:50:16.669Z,96752.39
2023-11-14T15:53:40.198Z,96749.01
2023-11-14T15:57:10.975Z,96744.52
2023-11-14T16:00:39.494Z,96752.33
2023-11-14T16:04:04.083Z,96749.17
2023-11-14T16:07:38.196Z,96751.86
2023-11-14T16:11:12.084Z,96750.65
2023-11-14T16:15:03.546Z,96752.20
2023-11-14T16:19:23.119Z,96753.36
2023-11-14T16:23:06.979Z,96747.65
2023-11-14T16:26:50.881Z,96733.02
2023-11-14T16:30:53.624Z,96725.84
2023-11-14T16:34:45.206Z,96722.48
2023-11-14T16:38:35.273Z,96720.96
2023-11-14T16:42:59.338Z,96724.44
2023-11-14T16:47:06.979Z,96728.08
2023-11-14T16:51:07.433Z,96734.22
2023-11-14T16:55:16.663Z,96735.33
2023-11-14T16:59:28.704Z,96736.31
2023-11-14T17:04:00.160Z,96744.75
2023-11-14T17:08:05.147Z,96747.31
2023-11-14T17:11:24.730Z,96747.45
2023-11-14T17:15:32.809Z,96738.28
2023-11-14T17:20:05.441Z,96741.52
2023-11-14T17:23:12.021Z,96742.79
2023-11-14T17:26:15.568Z,96736.80
2023-11-14T17:29:18.912Z,96731.34
2023-11-14T17:32:22.043Z,96726.88
2023-11-14T17:35:25.468Z,96723.04
2023-11-14T17:38:28.721Z,96722.33
2023-11-14T17:41:32.424Z,96733.20
2023-11-14T17:44:35.503Z,96717.63
2023-11-14T17:47:38.707Z,96717.14
2023-11-14T17:50:41.825Z,96720.13
2023-11-14T17:53:44.850Z,96712.45
2023-11-14T17:56:47.941Z,96710.61
2023-11-14T17:59:50.924Z,96710.05
2023-11-14T18:02:57.053Z,96720.02
2023-11-14T18:06:02.215Z,96717.70
2023-11-14T18:09:05.550Z,96696.10
2023-11-14T18:12:08.691Z,96693.35
2023-11-14T18:15:14.405Z,96687.26
2023-11-14T18:18:18.795Z,96688.94
2023-11-14T18:21:23.395Z,96694.94
2023-11-14T18:24:26.868Z,96695.56
2023-11-14T18:27:29.990Z,96697.86
2023-11-14T18:30:33.552Z,96693.65
2023-11-14T18:33:36.577Z,96695.31
2023-11-14T18:36:39.490Z,96698.23
2023-11-14T18:39:42.622Z,96685.55
2023-11-14T18:42:45.623Z,96666.14
2023-11-14T18:45:48.521Z,96677.55
2023-11-14T18:48:52.117Z,96664.14
2023-11-14T18:51:55.016Z,96660.33
2023-11-14T18:55:02.823Z,96659.17
2023-11-14T18:58:07.989Z,96656.98
2023-11-14T19:01:11.410Z,96658.36
2023-11-14T19:04:20.738Z,96647.41
2023-11-14T19:07:27.694Z,96648.72
2023-11-14T19:10:31.698Z,96636.08
2023-11-14T19:13:34.685Z,96658.91
2023-11-14T19:16:37.991Z,96660.10
2023-11-14T19:19:41.380Z,96623.65
2023-11-14T19:23:36.125Z,96626.41
2023-11-14T19:26:09.786Z,96629.29
2023-11-14T19:29:14.764Z,96606.10
2023-11-14T19:32:17.732Z,96590.70
2023-11-14T19:35:20.701Z,96592.98
2023-11-14T19:38:23.776Z,96607.48
2023-11-14T19:41:26.901Z,96609.58
2023-11-14T19:44:31.738Z,96602.48
2023-11-14T19:47:37.516Z,96609.73
2023-11-14T19:50:41.630Z,96601.87
2023-11-14T19:53:44.771Z,96611.83
2023-11-14T19:56:50.025Z,96612.64
2023-11-14T19:59:53.243Z,96606.66
2023-11-14T20:02:58.657Z,96595.94
2023-11-14T20:06:03.331Z,96598.34
2023-11-14T20:09:07.542Z,96579.29
2023-11-14T20:12:10.377Z,96575.95
2023-11-14T20:15:16.457Z,96583.58
2023-11-14T20:18:20.878Z,96588.92
2023-11-14T20:21:28.061Z,96577.46
2023-11-14T20:24:32.930Z,96571.29
2023-11-14T20:27:36.066Z,96578.77
2023-11-14T20:30:39.562Z,96580.72
2023-11-14T20:33:42.424Z,96581.68
2023-11-14T20:36:45.310Z,96569.44
2023-11-14T20:39:48.320Z,96571.59
2023-11-14T20:42:51.512Z,96562.78
2023-11-14T20:45:56.566Z,96554.71
2023-11-14T20:48:59.602Z,96568.14
2023-11-14T20:52:02.824Z,96564.70
2023-11-14T20:55:06.611Z,96571.63
2023-11-14T20:58:11.630Z,96580.42
2023-11-14T21:01:14.973Z,96561.17
2023-11-14T21:04:18.082Z,96552.14
2023-11-14T21:07:21.057Z,96544.50
2023-11-14T21:10:24.093Z,96536.41
2023-11-14T21:13:27.115Z,96542.52
2023-11-14T21:16:30.550Z,96546.71
2023-11-14T21:19:33.681Z,96550.14
2023-11-14T21:22:36.568Z,96551.27
2023-11-14T21:25:39.419Z,96549.45
2023-11-14T21:28:42.248Z,96559.30
2023-11-14T21:31:45.393Z,96568.38
2023-11-14T21:34:48.345Z,96564.58
2023-11-14T21:37:51.608Z,96568.84
2023-11-14T21:40:55.145Z,96568.01
2023-11-14T21:43:59.283Z,96554.27
2023-11-14T21:47:03.999Z,96555.59
2023-11-14T21:50:07.770Z,96554.14
2023-11-14T21:53:10.794Z,96539.48
2023-11-14T21:56:14.833Z,96537.41
2023-11-14T21:59:17.873Z,96532.05
2023-11-14T22:02:20.826Z,96529.14
2023-11-14T22:05:23.938Z,96517.59
2023-11-14T22:08:26.927Z,96515.63
2023-11-14T22:11:30.183Z,96513.64
2023-11-14T22:14:33.235Z,96513.11
2023-11-14T22:17:37.139Z,96511.23
2023-11-14T22:20:40.243Z,96509.73
2023-11-14T22:23:43.132Z,96508.98
2023-11-14T22:26:46.346Z,96501.52
2023-11-14T22:29:50.491Z,96508.98
2023-11-14T22:32:54.268Z,96505.83
2023-11-14T22:36:00.967Z,96505.20
2023-11-14T22:39:05.276Z,96504.33
2023-11-14T22:42:08.601Z,96507.45
2023-11-14T22:45:13.466Z,96506.60
2023-11-14T22:48:17.069Z,96507.95
2023-11-14T22:51:20.275Z,96507.14
2023-11-14T22:54:25.081Z,96507.41
2023-11-14T22:57:28.114Z,96502.99
2023-11-14T23:00:45.378Z,96504.90
2023-11-14T23:03:49.230Z,96495.69
2023-11-14T23:06:53.095Z,96499.98
2023-11-14T23:09:57.381Z,96494.22
2023-11-14T23:13:00.954Z,96488.69
2023-11-14T23:16:04.400Z,96485.73
2023-11-14T23:19:10.053Z,96484.41
2023-11-14T23:22:12.925Z,96481.05
2023-11-14T23:25:15.793Z,96477.32
2023-11-14T23:28:19.063Z,96474.27
2023-11-14T23:31:21.908Z,96468.27
2023-11-14T23:34:24.958Z,96466.39
2023-11-14T23:37:27.973Z,96466.91
2023-11-14T23:40:31.332Z,96464.11
2023-11-14T23:43:34.761Z,96457.14
2023-11-14T23:46:37.737Z,96460.11
2023-11-14T23:49:40.733Z,96454.36
2023-11-14T23:52:43.943Z,96451.81
2023-11-14T23:55:47.737Z,96446.33
2023-11-14T23:58:50.606Z,96442.09
